Time;durP1;ratioP1;P1;durP2;ratioP2;P2;SDS_P1;SDS_P2;PMS_P1;PMS_P2;Temp;Humidity;BMP_temperature;BMP_pressure;BME280_temperature;BME280_humidity;BME280_pressure;Samples;Min_cycle;Max_cycle;Signal;HPM_P1;HPM_P2
2023/04/17 00:02:21;;;;;;;33.13;18.92;;;8.70;99.90;;;;;;5040169;28;20041;-59
2023/04/17 00:04:47;;;;;;;36.67;20.55;;;8.60;99.90;;;;;;5039527;28;20073;-59
2023/04/17 00:07:13;;;;;;;32.70;19.42;;;8.60;99.90;;;;;;5029948;28;20046;-59
2023/04/17 00:09:38;;;;;;;30.33;20.17;;;8.60;99.90;;;;;;5039976;28;20132;-59
2023/04/17 00:12:04;;;;;;;33.03;19.55;;;8.60;99.90;;;;;;5038863;28;20037;-60
2023/04/17 00:14:30;;;;;;;30.90;18.63;;;8.60;99.90;;;;;;5036635;28;20072;-60
2023/04/17 00:16:56;;;;;;;33.00;20.27;;;8.60;99.90;;;;;;5030999;28;20038;-59
2023/04/17 00:19:21;;;;;;;29.25;18.52;;;8.60;99.90;;;;;;5034989;28;20046;-60
2023/04/17 00:21:47;;;;;;;32.70;19.17;;;8.60;99.90;;;;;;5037656;28;20064;-59
2023/04/17 00:24:13;;;;;;;32.85;19.38;;;8.50;99.90;;;;;;5012560;28;20046;-60
2023/04/17 00:26:39;;;;;;;29.77;19.02;;;8.60;99.90;;;;;;4998485;28;20030;-59
2023/04/17 00:29:05;;;;;;;28.33;18.15;;;8.50;99.90;;;;;;5034328;28;20040;-60
2023/04/17 00:31:30;;;;;;;28.90;16.45;;;8.50;99.90;;;;;;5038267;28;20111;-59
2023/04/17 00:33:57;;;;;;;28.83;18.73;;;8.50;99.90;;;;;;5018108;28;20049;-59
2023/04/17 00:36:23;;;;;;;31.08;18.35;;;8.50;99.90;;;;;;5036660;28;20041;-59
2023/04/17 00:38:49;;;;;;;29.85;17.98;;;8.50;99.90;;;;;;5030922;28;20042;-60
2023/04/17 00:41:15;;;;;;;27.50;16.55;;;8.50;99.90;;;;;;5031007;28;20405;-59
2023/04/17 00:43:41;;;;;;;27.88;18.73;;;8.50;99.90;;;;;;5030834;28;20045;-59
2023/04/17 00:46:07;;;;;;;29.00;18.40;;;8.50;99.90;;;;;;5037729;28;20052;-59
2023/04/17 00:48:35;;;;;;;29.90;17.75;;;8.50;99.90;;;;;;5023193;28;20042;-59
2023/04/17 00:51:02;;;;;;;30.42;18.23;;;8.50;99.90;;;;;;5013440;28;20068;-61
2023/04/17 00:53:31;;;;;;;28.88;18.55;;;8.40;99.90;;;;;;5026128;28;20046;-60
2023/04/17 00:56:00;;;;;;;27.77;18.35;;;8.50;99.90;;;;;;5032163;28;20608;-60
2023/04/17 00:58:26;;;;;;;30.58;18.27;;;8.50;99.90;;;;;;5009612;28;20165;-59
2023/04/17 01:00:52;;;;;;;31.77;19.83;;;8.40;99.90;;;;;;5024297;28;20046;-60
2023/04/17 01:03:17;;;;;;;30.30;18.75;;;8.40;99.90;;;;;;5015922;28;20567;-59
2023/04/17 01:05:48;;;;;;;29.15;19.00;;;8.40;99.90;;;;;;5035748;28;20124;-59
2023/04/17 01:08:14;;;;;;;29.63;18.45;;;8.40;99.90;;;;;;5036487;28;20477;-59
2023/04/17 01:10:40;;;;;;;26.98;18.05;;;8.40;99.90;;;;;;4991728;28;20076;-60
2023/04/17 01:13:07;;;;;;;27.90;18.17;;;8.40;99.90;;;;;;5041977;28;20041;-61
2023/04/17 01:15:34;;;;;;;25.88;16.55;;;8.30;99.90;;;;;;5027332;28;20045;-59
2023/04/17 01:18:01;;;;;;;30.05;19.02;;;8.40;99.90;;;;;;5029945;28;20046;-60
2023/04/17 01:20:30;;;;;;;29.83;18.33;;;8.30;99.90;;;;;;5029310;28;20080;-59
2023/04/17 01:22:57;;;;;;;32.25;19.63;;;8.30;99.90;;;;;;5026623;28;20046;-62
2023/04/17 01:25:23;;;;;;;34.40;18.77;;;8.40;99.90;;;;;;5025963;28;20033;-60
2023/04/17 01:27:49;;;;;;;34.20;20.17;;;8.30;99.90;;;;;;5036736;28;20107;-60
2023/04/17 01:30:15;;;;;;;29.45;18.88;;;8.30;99.90;;;;;;5033169;28;20041;-60
2023/04/17 01:32:41;;;;;;;32.03;19.13;;;8.40;99.90;;;;;;5036931;28;20075;-59
2023/04/17 01:35:07;;;;;;;30.30;19.58;;;8.30;99.90;;;;;;5036829;28;20814;-59
2023/04/17 01:37:32;;;;;;;33.20;19.48;;;8.30;99.90;;;;;;5018919;28;20049;-59
2023/04/17 01:39:58;;;;;;;34.40;20.80;;;8.30;99.90;;;;;;5035810;28;20052;-61
2023/04/17 01:42:25;;;;;;;33.00;19.75;;;8.30;99.90;;;;;;5030594;28;20099;-59
2023/04/17 01:44:51;;;;;;;35.75;21.27;;;8.30;99.90;;;;;;5037548;28;20043;-60
2023/04/17 01:47:16;;;;;;;36.38;20.40;;;8.20;99.90;;;;;;5017596;28;20116;-60
2023/04/17 01:49:42;;;;;;;37.45;21.70;;;8.30;99.90;;;;;;5018493;28;20077;-60
2023/04/17 01:52:08;;;;;;;41.58;22.42;;;8.30;99.90;;;;;;5012145;28;20088;-59
2023/04/17 01:54:33;;;;;;;38.10;22.50;;;8.20;99.90;;;;;;5037652;28;20074;-59
2023/04/17 01:57:00;;;;;;;36.67;21.77;;;8.20;99.90;;;;;;5038229;28;20037;-60
2023/04/17 01:59:25;;;;;;;37.90;22.13;;;8.20;99.90;;;;;;5017492;28;20050;-60
2023/04/17 02:01:52;;;;;;;38.53;22.02;;;8.20;99.90;;;;;;5034537;28;20136;-59
2023/04/17 02:04:18;;;;;;;38.30;22.63;;;8.20;99.90;;;;;;5037177;28;20041;-60
2023/04/17 02:06:43;;;;;;;39.67;23.05;;;8.20;99.90;;;;;;5032450;28;20079;-60
2023/04/17 02:09:09;;;;;;;39.03;22.13;;;8.10;99.90;;;;;;5034380;28;20041;-60
2023/04/17 02:11:35;;;;;;;43.05;24.20;;;8.20;99.90;;;;;;5037397;28;20067;-60
2023/04/17 02:14:01;;;;;;;38.70;23.02;;;8.20;99.90;;;;;;5036839;28;20048;-60
2023/04/17 02:16:27;;;;;;;42.63;24.10;;;8.20;99.90;;;;;;5019590;28;20092;-60
2023/04/17 02:18:54;;;;;;;42.67;22.70;;;8.20;99.90;;;;;;5019008;28;20037;-60
2023/04/17 02:21:20;;;;;;;41.83;23.27;;;8.20;99.90;;;;;;5019232;28;20041;-59
2023/04/17 02:23:46;;;;;;;41.00;23.17;;;8.20;99.90;;;;;;5037421;28;20072;-59
2023/04/17 02:26:12;;;;;;;44.10;24.65;;;8.20;99.90;;;;;;5037210;28;20034;-59
2023/04/17 02:28:38;;;;;;;43.15;24.33;;;8.10;99.90;;;;;;5034309;28;20053;-60
2023/04/17 02:31:07;;;;;;;41.00;24.38;;;8.20;99.90;;;;;;5018231;28;20053;-59
2023/04/17 02:33:36;;;;;;;40.80;24.50;;;8.20;99.90;;;;;;5010676;28;20056;-61
2023/04/17 02:36:05;;;;;;;37.65;22.10;;;8.20;99.90;;;;;;5024864;28;20040;-59
2023/04/17 02:38:31;;;;;;;42.25;24.25;;;8.20;99.90;;;;;;5028500;28;20521;-61
2023/04/17 02:40:58;;;;;;;44.13;24.27;;;8.20;99.90;;;;;;5022517;28;20045;-60
2023/04/17 02:43:24;;;;;;;39.33;22.23;;;8.20;99.90;;;;;;5031964;28;20042;-60
2023/04/17 02:45:50;;;;;;;39.83;24.10;;;8.20;99.90;;;;;;5006829;28;20529;-59
2023/04/17 02:48:16;;;;;;;45.25;24.73;;;8.20;99.90;;;;;;5028685;28;20045;-57
2023/04/17 02:50:42;;;;;;;40.60;24.35;;;8.20;99.90;;;;;;5029104;28;20121;-58
2023/04/17 02:53:08;;;;;;;42.85;24.60;;;8.20;99.90;;;;;;5031069;28;20284;-60
2023/04/17 02:55:34;;;;;;;44.92;24.45;;;8.20;99.90;;;;;;5033197;28;20041;-59
2023/04/17 02:58:00;;;;;;;49.25;24.75;;;8.20;99.90;;;;;;5015582;28;20038;-59
2023/04/17 03:00:26;;;;;;;43.53;22.52;;;8.20;99.90;;;;;;5020748;28;20056;-61
2023/04/17 03:02:52;;;;;;;44.05;24.95;;;8.20;99.90;;;;;;5026719;28;20118;-60
2023/04/17 03:05:22;;;;;;;50.08;26.20;;;8.20;99.90;;;;;;5013229;28;20053;-60
2023/04/17 03:07:48;;;;;;;43.90;25.30;;;8.20;99.90;;;;;;5028221;28;20046;-58
2023/04/17 03:10:14;;;;;;;47.25;25.42;;;8.20;99.90;;;;;;5025352;28;20135;-59
2023/04/17 03:12:40;;;;;;;47.17;25.67;;;8.20;99.90;;;;;;5025886;28;20509;-59
2023/04/17 03:15:06;;;;;;;52.53;27.10;;;8.20;99.90;;;;;;5006443;28;20050;-60
2023/04/17 03:17:32;;;;;;;47.28;26.00;;;8.20;99.90;;;;;;5021104;28;20057;-60
2023/04/17 03:19:58;;;;;;;45.80;24.25;;;8.20;99.90;;;;;;5027659;28;20045;-60
2023/04/17 03:22:23;;;;;;;47.78;26.90;;;8.20;99.90;;;;;;4998031;28;20049;-60
2023/04/17 03:24:49;;;;;;;48.42;26.48;;;8.20;99.90;;;;;;5026434;28;20103;-59
2023/04/17 03:27:15;;;;;;;48.67;26.55;;;8.20;99.90;;;;;;5031754;28;20049;-60
2023/04/17 03:29:40;;;;;;;48.75;27.38;;;8.20;99.90;;;;;;5025999;28;20042;-60
2023/04/17 03:32:06;;;;;;;49.95;26.35;;;8.20;99.90;;;;;;5018997;28;20125;-60
2023/04/17 03:34:32;;;;;;;54.38;26.63;;;8.20;99.90;;;;;;5013347;28;20486;-59
2023/04/17 03:36:58;;;;;;;44.75;25.60;;;8.20;99.90;;;;;;5022603;28;20045;-60
2023/04/17 03:39:23;;;;;;;47.33;27.05;;;8.20;99.90;;;;;;4994673;28;20056;-61
2023/04/17 03:41:49;;;;;;;48.80;26.77;;;8.20;99.90;;;;;;5028757;28;20064;-60
2023/04/17 03:44:16;;;;;;;47.55;27.33;;;8.30;99.90;;;;;;5036236;28;20041;-60
2023/04/17 03:46:41;;;;;;;48.70;27.38;;;8.20;99.90;;;;;;5008059;28;20076;-60
2023/04/17 03:49:07;;;;;;;47.50;26.95;;;8.20;99.90;;;;;;5028481;28;20037;-60
2023/04/17 03:51:33;;;;;;;46.83;26.65;;;8.20;99.90;;;;;;5030298;28;20129;-59
2023/04/17 03:53:58;;;;;;;51.00;26.92;;;8.20;99.90;;;;;;5027838;28;20065;-59
2023/04/17 03:56:24;;;;;;;52.33;27.70;;;8.20;99.90;;;;;;5032110;28;20119;-60
2023/04/17 03:58:50;;;;;;;44.45;26.70;;;8.20;99.90;;;;;;5018481;28;21738;-59
2023/04/17 04:01:16;;;;;;;51.35;26.27;;;8.20;99.90;;;;;;5009259;28;20054;-60
2023/04/17 04:03:42;;;;;;;49.85;27.80;;;8.30;99.90;;;;;;5023851;28;20085;-60
2023/04/17 04:06:07;;;;;;;46.88;26.35;;;8.30;99.90;;;;;;5029662;28;20037;-59
2023/04/17 04:08:33;;;;;;;55.25;28.02;;;8.30;99.90;;;;;;5027624;28;20044;-59
2023/04/17 04:11:00;;;;;;;46.95;26.98;;;8.30;99.90;;;;;;5034545;28;20037;-60
2023/04/17 04:13:26;;;;;;;46.63;27.92;;;8.30;99.90;;;;;;5032505;28;20375;-61
2023/04/17 04:15:51;;;;;;;49.08;25.83;;;8.30;99.90;;;;;;5039487;28;20044;-60
2023/04/17 04:18:17;;;;;;;46.55;27.40;;;8.20;99.90;;;;;;5035425;28;20038;-59
2023/04/17 04:20:44;;;;;;;46.58;27.70;;;8.20;99.90;;;;;;5016976;28;20239;-59
2023/04/17 04:23:10;;;;;;;51.88;28.55;;;8.30;99.90;;;;;;5010075;28;20069;-58
2023/04/17 04:25:40;;;;;;;47.88;26.83;;;8.20;99.90;;;;;;5029778;28;20335;-58
2023/04/17 04:28:06;;;;;;;47.25;28.00;;;8.20;99.90;;;;;;5029245;28;20050;-58
2023/04/17 04:30:37;;;;;;;48.53;26.95;;;8.20;99.90;;;;;;5028886;28;20046;-58
2023/04/17 04:33:07;;;;;;;49.42;28.70;;;8.20;99.90;;;;;;5034004;28;20054;-58
2023/04/17 04:35:32;;;;;;;52.15;27.88;;;8.20;99.90;;;;;;5029232;28;20073;-58
2023/04/17 04:38:01;;;;;;;50.35;28.27;;;8.20;99.90;;;;;;5035690;28;20046;-58
2023/04/17 04:40:29;;;;;;;53.88;28.90;;;8.20;99.90;;;;;;5027693;28;20069;-57
2023/04/17 04:42:55;;;;;;;52.10;28.35;;;8.20;99.90;;;;;;5037146;28;20089;-58
2023/04/17 04:45:21;;;;;;;51.13;28.33;;;8.20;99.90;;;;;;5026197;28;20045;-58
2023/04/17 04:47:47;;;;;;;49.95;27.55;;;8.20;99.90;;;;;;5030448;28;20088;-58
2023/04/17 04:50:13;;;;;;;51.08;27.08;;;8.20;99.90;;;;;;5028399;28;20045;-58
2023/04/17 04:52:38;;;;;;;46.00;27.60;;;8.20;99.90;;;;;;5028812;28;20034;-58
2023/04/17 04:55:04;;;;;;;49.42;27.05;;;8.10;99.90;;;;;;5032817;28;20034;-58
2023/04/17 04:57:30;;;;;;;48.00;26.88;;;8.20;99.90;;;;;;5026931;28;20042;-58
2023/04/17 04:59:56;;;;;;;47.67;26.63;;;8.20;99.90;;;;;;5027980;28;20049;-58
2023/04/17 05:02:21;;;;;;;46.28;26.23;;;8.20;99.90;;;;;;5027673;28;20108;-58
2023/04/17 05:04:47;;;;;;;48.60;27.80;;;8.10;99.90;;;;;;5034797;28;20041;-57
2023/04/17 05:07:13;;;;;;;50.05;27.33;;;8.10;99.90;;;;;;5030192;28;20042;-57
2023/04/17 05:09:38;;;;;;;39.92;24.00;;;8.20;99.90;;;;;;5014569;28;20048;-58
2023/04/17 05:12:04;;;;;;;49.47;26.98;;;8.20;99.90;;;;;;5019388;28;20056;-58
2023/04/17 05:14:30;;;;;;;45.90;26.90;;;8.20;99.90;;;;;;5031662;28;20464;-58
2023/04/17 05:16:55;;;;;;;47.60;27.35;;;8.20;99.90;;;;;;5014336;28;20137;-61
2023/04/17 05:19:21;;;;;;;50.80;27.02;;;8.20;99.90;;;;;;5034809;28;20045;-59
2023/04/17 05:21:47;;;;;;;47.53;28.02;;;8.20;99.90;;;;;;5038636;28;20045;-58
2023/04/17 05:24:12;;;;;;;51.92;27.02;;;8.20;99.90;;;;;;5033777;28;20052;-58
2023/04/17 05:26:38;;;;;;;45.63;26.98;;;8.20;99.90;;;;;;5036880;28;20056;-57
2023/04/17 05:29:04;;;;;;;46.08;27.05;;;8.20;99.90;;;;;;5024152;28;20046;-59
2023/04/17 05:31:29;;;;;;;46.88;26.75;;;8.20;99.90;;;;;;5015284;28;20060;-59
2023/04/17 05:33:55;;;;;;;47.45;28.42;;;8.20;99.90;;;;;;5037277;28;20095;-58
2023/04/17 05:36:21;;;;;;;48.53;27.73;;;8.20;99.90;;;;;;5029586;28;20205;-59
2023/04/17 05:38:47;;;;;;;45.92;27.02;;;8.20;99.90;;;;;;5031750;28;20037;-58
2023/04/17 05:41:13;;;;;;;44.45;25.92;;;8.20;99.90;;;;;;5020037;28;20041;-58
2023/04/17 05:43:39;;;;;;;45.55;26.83;;;8.60;99.90;;;;;;5033316;28;20040;-58
2023/04/17 05:46:05;;;;;;;40.90;23.92;;;8.20;99.90;;;;;;5017479;28;20046;-58
2023/04/17 05:48:31;;;;;;;48.25;30.08;;;8.30;99.90;;;;;;5033110;28;20630;-58
2023/04/17 05:50:56;;;;;;;42.28;28.42;;;8.30;99.90;;;;;;5025320;28;20044;-59
2023/04/17 05:53:22;;;;;;;48.50;28.17;;;8.20;99.90;;;;;;5037527;28;20034;-58
2023/04/17 05:55:48;;;;;;;43.55;25.95;;;8.20;99.90;;;;;;5037263;28;20080;-58
2023/04/17 05:58:14;;;;;;;40.63;25.35;;;8.20;99.90;;;;;;5031287;28;20437;-59
2023/04/17 06:00:41;;;;;;;41.08;24.52;;;8.20;99.90;;;;;;5033092;28;20045;-58
2023/04/17 06:03:06;;;;;;;44.63;25.63;;;8.10;99.90;;;;;;5033240;28;20148;-59
2023/04/17 06:05:32;;;;;;;40.55;24.80;;;8.80;99.90;;;;;;5035454;28;20095;-60
2023/04/17 06:07:58;;;;;;;42.83;25.75;;;8.10;99.90;;;;;;5030107;28;20449;-60
2023/04/17 06:10:24;;;;;;;42.65;25.27;;;8.10;99.90;;;;;;4995926;28;20108;-59
2023/04/17 06:12:51;;;;;;;44.90;26.25;;;8.10;99.90;;;;;;5024051;28;20050;-59
2023/04/17 06:15:16;;;;;;;43.22;24.80;;;8.10;99.90;;;;;;5003357;28;20049;-58
2023/04/17 06:17:42;;;;;;;41.67;23.75;;;8.00;99.90;;;;;;5036499;28;20128;-60
2023/04/17 06:20:11;;;;;;;39.70;24.92;;;8.10;99.90;;;;;;5036938;28;20363;-57
2023/04/17 06:22:38;;;;;;;38.97;24.80;;;8.10;99.90;;;;;;5031845;28;20045;-59
2023/04/17 06:25:04;;;;;;;43.47;25.58;;;8.10;99.90;;;;;;5034383;28;20049;-59
2023/04/17 06:27:30;;;;;;;43.78;24.92;;;8.10;99.90;;;;;;5027573;28;20056;-59
2023/04/17 06:29:56;;;;;;;36.92;23.63;;;8.20;99.90;;;;;;5001706;28;20097;-59
2023/04/17 06:32:21;;;;;;;45.55;28.17;;;8.20;99.90;;;;;;5028642;28;20052;-60
2023/04/17 06:34:47;;;;;;;45.10;25.30;;;8.20;99.90;;;;;;5036611;28;20077;-59
2023/04/17 06:37:13;;;;;;;43.83;24.58;;;8.20;99.90;;;;;;5019620;28;20049;-60
2023/04/17 06:39:38;;;;;;;44.20;24.40;;;8.30;99.90;;;;;;5034865;28;20531;-59
2023/04/17 06:42:05;;;;;;;37.40;21.95;;;8.40;99.90;;;;;;5022997;28;20081;-58
2023/04/17 06:44:31;;;;;;;40.83;23.02;;;8.40;99.90;;;;;;5036651;28;20063;-59
2023/04/17 06:46:57;;;;;;;38.70;24.90;;;8.40;99.90;;;;;;5012792;28;20038;-59
2023/04/17 06:49:23;;;;;;;38.10;23.75;;;8.40;99.90;;;;;;5012097;28;20042;-59
2023/04/17 06:51:50;;;;;;;41.45;24.23;;;8.40;99.90;;;;;;5039022;28;20405;-60
2023/04/17 06:54:16;;;;;;;41.75;25.30;;;8.40;99.90;;;;;;5037400;28;20089;-59
2023/04/17 06:56:41;;;;;;;38.78;23.95;;;8.30;99.90;;;;;;5032563;28;20038;-58
2023/04/17 06:59:07;;;;;;;39.58;23.98;;;8.40;99.90;;;;;;5034828;28;20065;-58
2023/04/17 07:01:33;;;;;;;36.00;22.98;;;8.30;99.90;;;;;;5030326;28;20058;-59
2023/04/17 07:03:59;;;;;;;41.25;25.15;;;8.40;99.90;;;;;;5036438;28;20056;-59
2023/04/17 07:06:25;;;;;;;40.95;23.48;;;8.30;99.90;;;;;;5031231;28;20548;-59
2023/04/17 07:08:51;;;;;;;39.22;24.00;;;8.40;99.90;;;;;;5032116;28;20045;-59
2023/04/17 07:11:17;;;;;;;42.90;24.50;;;8.50;99.90;;;;;;5030730;28;20037;-59
2023/04/17 07:13:43;;;;;;;44.33;24.98;;;8.40;99.90;;;;;;5027130;28;20048;-59
2023/04/17 07:16:08;;;;;;;36.67;24.33;;;8.50;99.90;;;;;;5035255;28;20060;-58
2023/04/17 07:18:34;;;;;;;37.05;24.17;;;8.50;99.90;;;;;;5015987;28;20060;-59
2023/04/17 07:21:00;;;;;;;41.47;24.67;;;8.60;99.90;;;;;;5033320;28;20064;-59
2023/04/17 07:23:26;;;;;;;37.25;22.67;;;8.60;99.90;;;;;;5026550;28;20046;-59
2023/04/17 07:25:52;;;;;;;36.28;22.48;;;8.60;99.90;;;;;;5034094;28;20038;-59
2023/04/17 07:28:17;;;;;;;32.50;22.05;;;8.70;99.90;;;;;;5035373;28;20412;-59
2023/04/17 07:30:43;;;;;;;34.80;22.17;;;8.70;99.90;;;;;;5028666;28;20045;-58
2023/04/17 07:33:09;;;;;;;36.85;23.17;;;8.70;99.90;;;;;;5014249;28;20033;-58
2023/04/17 07:35:35;;;;;;;35.92;22.95;;;8.80;99.90;;;;;;5033528;28;20289;-59
2023/04/17 07:38:02;;;;;;;33.88;22.90;;;8.90;99.90;;;;;;5015218;28;20045;-58
2023/04/17 07:40:29;;;;;;;38.78;24.00;;;9.00;99.90;;;;;;5026499;28;20062;-60
2023/04/17 07:42:55;;;;;;;38.90;24.10;;;9.10;99.90;;;;;;5032045;28;20037;-59
2023/04/17 07:45:22;;;;;;;37.58;23.95;;;9.20;99.90;;;;;;5035320;28;20045;-59
2023/04/17 07:47:49;;;;;;;37.40;25.23;;;9.20;99.90;;;;;;5017467;28;20049;-59
2023/04/17 07:50:15;;;;;;;33.50;23.73;;;9.30;99.90;;;;;;5036037;28;20040;-59
2023/04/17 07:52:40;;;;;;;34.50;23.50;;;9.40;99.90;;;;;;5019085;28;20046;-58
2023/04/17 07:55:06;;;;;;;38.05;24.02;;;9.40;99.90;;;;;;5040372;28;20041;-59
2023/04/17 07:57:32;;;;;;;33.25;22.17;;;9.50;99.90;;;;;;5036817;28;20041;-59
2023/04/17 07:59:58;;;;;;;32.70;22.08;;;9.60;99.90;;;;;;5018938;28;20042;-59
2023/04/17 08:02:23;;;;;;;32.22;22.20;;;9.60;99.90;;;;;;5030255;28;20061;-60
2023/04/17 08:04:51;;;;;;;33.85;22.50;;;9.80;99.90;;;;;;5039265;28;20097;-59
2023/04/17 08:07:17;;;;;;;32.97;23.10;;;9.90;99.90;;;;;;5034390;28;20041;-59
2023/04/17 08:09:43;;;;;;;36.28;23.33;;;10.00;99.90;;;;;;5039222;28;20049;-59
2023/04/17 08:12:09;;;;;;;31.80;22.48;;;10.10;99.90;;;;;;4999530;28;20037;-59
2023/04/17 08:14:35;;;;;;;33.92;22.25;;;10.10;99.90;;;;;;5035959;28;20520;-60
2023/04/17 08:17:01;;;;;;;31.83;21.92;;;10.10;99.90;;;;;;5020653;28;20042;-58
2023/04/17 08:19:28;;;;;;;34.75;22.98;;;10.10;99.90;;;;;;5032584;28;20448;-57
2023/04/17 08:22:01;;;;;;;33.55;23.67;;;10.20;99.90;;;;;;5016845;28;20045;-58
2023/04/17 08:24:27;;;;;;;32.17;22.00;;;10.30;99.90;;;;;;5011767;28;20061;-57
2023/04/17 08:26:52;;;;;;;30.88;22.25;;;10.50;99.90;;;;;;5033909;28;20049;-58
2023/04/17 08:29:18;;;;;;;32.67;21.98;;;10.70;99.90;;;;;;5031862;28;20046;-58
2023/04/17 08:31:44;;;;;;;31.40;20.77;;;11.00;99.90;;;;;;5035407;28;20049;-59
2023/04/17 08:34:10;;;;;;;29.75;21.10;;;11.30;99.90;;;;;;5035132;28;20060;-59
2023/04/17 08:36:35;;;;;;;32.08;20.55;;;11.80;99.90;;;;;;5032682;28;20113;-58
2023/04/17 08:39:01;;;;;;;30.00;22.08;;;12.10;99.90;;;;;;5020657;28;20264;-58
2023/04/17 08:41:36;;;;;;;28.73;20.98;;;12.30;99.90;;;;;;5027694;28;20072;-59
2023/04/17 08:44:02;;;;;;;31.33;20.52;;;12.40;99.90;;;;;;5034048;28;20060;-58
2023/04/17 08:46:29;;;;;;;35.67;21.58;;;12.40;99.90;;;;;;5035895;28;20037;-58
2023/04/17 08:48:55;;;;;;;29.60;20.67;;;12.40;99.90;;;;;;5019966;28;20072;-58
2023/04/17 08:51:25;;;;;;;30.67;20.13;;;12.40;99.90;;;;;;5036421;28;20049;-58
2023/04/17 08:53:51;;;;;;;29.98;20.42;;;12.30;99.90;;;;;;5037043;28;20045;-58
2023/04/17 08:56:16;;;;;;;28.63;20.48;;;12.20;99.90;;;;;;5034383;28;20041;-59
2023/04/17 08:58:42;;;;;;;28.38;20.35;;;12.20;99.90;;;;;;5028519;28;20052;-59
2023/04/17 09:01:09;;;;;;;29.92;21.67;;;12.10;99.90;;;;;;5016169;28;20057;-58
2023/04/17 09:03:40;;;;;;;29.13;19.88;;;12.10;99.90;;;;;;5025805;28;20065;-58
2023/04/17 09:06:09;;;;;;;31.75;20.33;;;12.00;99.90;;;;;;5035866;28;20072;-58
2023/04/17 09:08:34;;;;;;;29.23;21.58;;;12.00;99.90;;;;;;5029028;28;20046;-58
2023/04/17 09:11:00;;;;;;;28.70;21.60;;;11.80;99.90;;;;;;5030500;28;20100;-58
2023/04/17 09:13:28;;;;;;;30.77;20.30;;;11.70;99.90;;;;;;5028632;28;20053;-58
2023/04/17 09:16:20;;;;;;;28.45;20.38;;;11.70;99.90;;;;;;5037630;28;20049;-57
2023/04/17 09:18:46;;;;;;;31.63;20.20;;;11.70;99.90;;;;;;5032588;28;20053;-58
2023/04/17 09:21:15;;;;;;;27.83;20.08;;;11.70;99.90;;;;;;5008077;28;20038;-58
2023/04/17 09:23:51;;;;;;;27.30;19.98;;;11.80;99.90;;;;;;5031045;28;20041;-58
2023/04/17 09:26:19;;;;;;;30.83;21.75;;;12.00;99.90;;;;;;5028870;28;20041;-58
2023/04/17 09:29:12;;;;;;;28.48;19.08;;;12.10;99.90;;;;;;5035407;28;20038;-58
2023/04/17 09:31:40;;;;;;;29.80;20.05;;;12.30;99.90;;;;;;5024836;28;20049;-58
2023/04/17 09:34:09;;;;;;;29.25;21.60;;;12.40;99.90;;;;;;5026859;28;20066;-59
2023/04/17 09:36:37;;;;;;;28.92;19.92;;;12.50;99.90;;;;;;5035138;28;20037;-57
2023/04/17 09:39:14;;;;;;;29.25;20.15;;;12.60;99.90;;;;;;5023479;28;20101;-57
2023/04/17 09:41:40;;;;;;;31.05;21.67;;;12.90;99.90;;;;;;5034933;28;20081;-58
2023/04/17 09:44:06;;;;;;;28.08;21.40;;;13.10;99.90;;;;;;5038717;28;20060;-58
2023/04/17 09:46:32;;;;;;;30.63;20.55;;;13.40;99.90;;;;;;5033835;28;20465;-58
2023/04/17 09:49:07;;;;;;;28.27;20.50;;;13.60;99.90;;;;;;5039965;28;20038;-59
2023/04/17 09:51:33;;;;;;;30.23;21.90;;;13.80;99.90;;;;;;5039792;28;20049;-58
2023/04/17 09:54:04;;;;;;;28.88;22.08;;;13.90;99.90;;;;;;5034927;28;20046;-57
2023/04/17 09:56:32;;;;;;;31.60;21.50;;;14.10;99.90;;;;;;5039764;28;20137;-57
2023/04/17 09:59:03;;;;;;;35.80;22.52;;;14.20;99.90;;;;;;5037045;28;20119;-58
2023/04/17 10:01:31;;;;;;;27.83;19.35;;;14.40;99.90;;;;;;5028775;28;20071;-58
2023/04/17 10:03:57;;;;;;;27.35;20.83;;;14.50;99.90;;;;;;5031890;28;20045;-58
2023/04/17 10:06:25;;;;;;;32.42;22.98;;;14.50;99.90;;;;;;5034070;28;20040;-58
2023/04/17 10:08:51;;;;;;;30.42;23.33;;;14.60;99.90;;;;;;5038904;28;20092;-58
2023/04/17 10:11:18;;;;;;;37.88;23.73;;;14.60;99.90;;;;;;5025580;28;20046;-57
2023/04/17 10:13:50;;;;;;;34.20;23.20;;;14.60;99.90;;;;;;5028687;28;20043;-58
2023/04/17 10:16:16;;;;;;;32.65;24.33;;;14.80;99.90;;;;;;5036908;28;20046;-58
2023/04/17 10:18:41;;;;;;;32.13;22.73;;;14.90;99.90;;;;;;5009742;28;20046;-58
2023/04/17 10:21:21;;;;;;;31.60;22.60;;;15.10;99.90;;;;;;5038475;28;20053;-58
2023/04/17 10:23:47;;;;;;;30.80;22.73;;;15.40;99.90;;;;;;5038379;28;20073;-58
2023/04/17 10:26:28;;;;;;;28.27;22.95;;;15.60;99.90;;;;;;5013448;28;20042;-58
2023/04/17 10:28:56;;;;;;;32.13;23.45;;;15.80;99.90;;;;;;5023800;28;20049;-58
2023/04/17 10:31:43;;;;;;;28.63;21.67;;;15.90;99.90;;;;;;5037536;28;20072;-58
2023/04/17 10:34:35;;;;;;;30.67;22.80;;;15.90;99.90;;;;;;5037658;28;20033;-58
2023/04/17 10:37:02;;;;;;;32.13;23.95;;;15.80;99.90;;;;;;5019487;28;20473;-57
2023/04/17 10:39:46;;;;;;;31.73;23.75;;;15.90;99.90;;;;;;5031601;28;20033;-58
2023/04/17 10:42:18;;;;;;;29.40;22.67;;;15.80;99.90;;;;;;5029990;28;20096;-58
2023/04/17 10:44:45;;;;;;;28.50;22.58;;;15.60;99.90;;;;;;5005722;28;20053;-58
2023/04/17 10:47:14;;;;;;;26.63;22.70;;;15.60;99.90;;;;;;5030292;28;20041;-58
2023/04/17 10:50:09;;;;;;;29.08;22.13;;;15.60;99.90;;;;;;5012103;28;20033;-58
2023/04/17 10:52:40;;;;;;;23.58;19.83;;;15.80;99.90;;;;;;5020151;28;20064;-58
2023/04/17 10:55:07;;;;;;;27.83;21.20;;;16.10;99.90;;;;;;5018864;28;20041;-58
2023/04/17 10:57:52;;;;;;;24.65;21.02;;;16.30;99.90;;;;;;5037397;28;20541;-58
2023/04/17 11:00:19;;;;;;;28.52;21.05;;;16.50;99.90;;;;;;5020994;28;20045;-58
2023/04/17 11:02:47;;;;;;;25.27;21.02;;;16.60;99.90;;;;;;5038150;28;20199;-58
2023/04/17 11:05:12;;;;;;;27.73;20.73;;;16.70;99.90;;;;;;5038023;28;20041;-58
2023/04/17 11:07:39;;;;;;;21.88;19.50;;;16.80;99.90;;;;;;5034278;28;20081;-58
2023/04/17 11:10:08;;;;;;;27.40;21.55;;;17.00;99.90;;;;;;5020272;28;20050;-58
2023/04/17 11:12:34;;;;;;;27.20;21.42;;;17.10;99.90;;;;;;5038006;28;20044;-58
2023/04/17 11:15:05;;;;;;;23.88;20.30;;;17.10;99.90;;;;;;5038719;28;20053;-58
2023/04/17 11:17:30;;;;;;;25.67;19.42;;;17.00;99.90;;;;;;5036477;28;20056;-57
2023/04/17 11:19:57;;;;;;;21.25;18.65;;;17.00;99.90;;;;;;5021299;28;20049;-58
2023/04/17 11:22:22;;;;;;;22.92;18.25;;;17.00;99.90;;;;;;5042564;28;20073;-58
2023/04/17 11:24:51;;;;;;;19.92;16.38;;;17.10;99.90;;;;;;5017760;28;20092;-58
2023/04/17 11:27:17;;;;;;;19.92;16.67;;;17.30;99.90;;;;;;5022718;28;20042;-57
2023/04/17 11:29:44;;;;;;;17.55;14.65;;;17.40;99.90;;;;;;5025209;28;20042;-58
2023/04/17 11:32:11;;;;;;;22.35;16.65;;;17.60;99.90;;;;;;5035057;28;20532;-57
2023/04/17 11:34:37;;;;;;;22.67;18.35;;;17.60;99.90;;;;;;5024727;28;20041;-57
2023/04/17 11:37:03;;;;;;;20.13;16.00;;;17.70;99.90;;;;;;5024483;28;20045;-57
2023/04/17 11:39:33;;;;;;;23.95;16.05;;;17.80;99.90;;;;;;5042487;28;20052;-58
2023/04/17 11:42:01;;;;;;;21.45;16.65;;;17.80;99.90;;;;;;5041249;28;20049;-58
2023/04/17 11:44:28;;;;;;;20.08;16.15;;;17.70;99.90;;;;;;5042180;28;20080;-58
2023/04/17 11:46:55;;;;;;;18.88;15.60;;;17.80;99.90;;;;;;5040547;28;20056;-58
2023/04/17 11:49:32;;;;;;;16.58;13.88;;;17.80;99.90;;;;;;5022706;28;20033;-57
2023/04/17 11:52:03;;;;;;;14.60;12.75;;;17.70;99.90;;;;;;5035511;28;20107;-58
2023/04/17 11:54:30;;;;;;;16.70;13.18;;;17.60;99.90;;;;;;5031764;28;20044;-58
2023/04/17 11:57:10;;;;;;;17.83;12.68;;;17.60;99.90;;;;;;5041764;28;20049;-57
2023/04/17 11:59:37;;;;;;;17.38;12.20;;;17.90;99.90;;;;;;5041350;28;20516;-58
2023/04/17 12:02:06;;;;;;;20.02;15.55;;;18.00;99.90;;;;;;5039822;28;20049;-56
2023/04/17 12:04:33;;;;;;;17.98;13.70;;;17.90;99.90;;;;;;5041202;28;20077;-57
2023/04/17 12:07:03;;;;;;;15.60;12.65;;;17.60;99.90;;;;;;5041909;28;20139;-58
2023/04/17 12:09:30;;;;;;;15.63;12.82;;;17.40;99.90;;;;;;5023828;28;20111;-58
2023/04/17 12:11:57;;;;;;;15.30;11.70;;;17.10;99.90;;;;;;5040684;28;20053;-58
2023/04/17 12:14:23;;;;;;;15.90;12.73;;;17.00;99.90;;;;;;5040497;28;20083;-58
2023/04/17 12:16:50;;;;;;;17.17;11.27;;;16.80;99.90;;;;;;5035998;28;20041;-58
2023/04/17 12:19:18;;;;;;;15.73;11.52;;;16.80;99.90;;;;;;5041243;28;20045;-58
2023/04/17 12:21:46;;;;;;;13.35;11.82;;;16.80;99.90;;;;;;5041402;28;20052;-56
2023/04/17 12:24:12;;;;;;;12.18;10.35;;;17.00;99.90;;;;;;5038934;28;20052;-58
2023/04/17 12:26:51;;;;;;;16.40;9.88;;;17.40;99.90;;;;;;5041506;28;20041;-57
2023/04/17 12:29:17;;;;;;;12.32;9.35;;;17.70;99.90;;;;;;5040485;28;20053;-57
2023/04/17 12:31:43;;;;;;;13.45;9.23;;;18.10;99.90;;;;;;5040142;28;20076;-58
2023/04/17 12:34:09;;;;;;;22.63;10.38;;;18.50;99.90;;;;;;5040878;28;20097;-58